createdAt,value
2018-05-12T00:02:26.868Z,11.03
2018-05-12T00:04:54.607Z,12.80
2018-05-12T00:07:22.376Z,12.07
2018-05-12T00:09:50.089Z,13.67
2018-05-12T00:12:18.472Z,11.90
2018-05-12T00:14:46.840Z,12.57
2018-05-12T00:17:14.546Z,12.33
2018-05-12T00:19:42.376Z,11.87
2018-05-12T00:22:10.072Z,13.63
2018-05-12T00:24:37.803Z,12.30
2018-05-12T00:27:05.548Z,12.17
2018-05-12T00:29:34.062Z,12.53
2018-05-12T00:32:01.825Z,12.40
2018-05-12T00:34:29.437Z,13.30
2018-05-12T00:36:57.142Z,12.67
2018-05-12T00:39:25.576Z,13.30
2018-05-12T00:41:53.331Z,12.23
2018-05-12T00:44:21.021Z,12.87
2018-05-12T00:46:48.666Z,12.90
2018-05-12T00:49:16.217Z,13.30
2018-05-12T00:51:43.831Z,11.80
2018-05-12T00:54:11.445Z,13.70
2018-05-12T00:56:39.100Z,13.67
2018-05-12T00:59:06.664Z,13.70
2018-05-12T01:01:34.318Z,12.87
2018-05-12T01:04:01.891Z,12.53
2018-05-12T01:06:29.749Z,12.00
2018-05-12T01:08:57.484Z,12.73
2018-05-12T01:11:25.178Z,12.73
2018-05-12T01:13:52.962Z,12.63
2018-05-12T01:16:20.748Z,13.77
2018-05-12T01:18:48.509Z,13.73
2018-05-12T01:21:16.956Z,12.47
2018-05-12T01:23:44.658Z,12.47
2018-05-12T01:26:13.149Z,13.20
2018-05-12T01:28:40.938Z,14.47
2018-05-12T01:31:08.661Z,12.33
2018-05-12T01:33:37.163Z,12.63
2018-05-12T01:36:04.854Z,12.93
2018-05-12T01:38:32.486Z,13.50
2018-05-12T01:41:00.256Z,12.17
2018-05-12T01:43:28.058Z,12.60
2018-05-12T01:45:55.810Z,12.77
2018-05-12T01:48:23.510Z,12.67
2018-05-12T01:50:51.243Z,14.33
2018-05-12T01:53:19.620Z,12.63
2018-05-12T01:55:47.444Z,13.13
2018-05-12T01:58:15.260Z,11.60
2018-05-12T02:00:43.010Z,12.60
2018-05-12T02:03:10.914Z,12.53
2018-05-12T02:05:38.664Z,12.57
2018-05-12T02:08:06.435Z,12.00
2018-05-12T02:10:34.184Z,13.60
2018-05-12T02:13:02.088Z,12.97
2018-05-12T02:15:29.739Z,12.33
2018-05-12T02:17:57.292Z,14.23
2018-05-12T02:20:25.049Z,13.97
2018-05-12T02:22:52.880Z,14.67
2018-05-12T02:25:20.620Z,12.80
2018-05-12T02:27:48.385Z,13.50
2018-05-12T02:30:16.933Z,14.20
2018-05-12T02:32:44.502Z,14.27
2018-05-12T02:35:12.187Z,13.27
2018-05-12T02:37:40.596Z,13.53
2018-05-12T02:40:10.724Z,12.80
2018-05-12T02:42:38.400Z,13.67
2018-05-12T02:45:06.052Z,13.33
2018-05-12T02:47:33.750Z,13.53
2018-05-12T02:50:01.411Z,13.17
2018-05-12T02:52:29.146Z,13.37
2018-05-12T02:54:56.805Z,13.07
2018-05-12T02:57:24.443Z,13.67
2018-05-12T02:59:52.134Z,13.07
2018-05-12T03:02:19.915Z,14.03
2018-05-12T03:04:47.772Z,13.50
2018-05-12T03:07:15.502Z,12.87
2018-05-12T03:09:43.302Z,13.63
2018-05-12T03:12:11.114Z,13.93
2018-05-12T03:14:38.909Z,13.47
2018-05-12T03:17:06.645Z,13.07
2018-05-12T03:19:34.421Z,13.07
2018-05-12T03:22:02.250Z,13.20
2018-05-12T03:24:30.756Z,14.77
2018-05-12T03:26:59.240Z,13.07
2018-05-12T03:29:26.915Z,14.70
2018-05-12T03:31:54.554Z,13.40
2018-05-12T03:34:22.258Z,14.37
2018-05-12T03:36:50.050Z,13.43
2018-05-12T03:39:17.838Z,14.43
2018-05-12T03:41:45.592Z,14.13
2018-05-12T03:44:13.284Z,13.90
2018-05-12T03:46:41.134Z,13.70
2018-05-12T03:49:09.723Z,13.87
2018-05-12T03:51:37.467Z,13.73
2018-05-12T03:54:05.119Z,14.97
2018-05-12T03:56:32.858Z,14.07
2018-05-12T03:59:00.651Z,14.53
2018-05-12T04:01:28.375Z,16.10
2018-05-12T04:03:56.153Z,14.13
2018-05-12T04:06:35.547Z,14.40
2018-05-12T04:09:16.084Z,15.10
2018-05-12T04:11:55.615Z,14.83
2018-05-12T04:14:24.233Z,15.10
2018-05-12T04:16:52.003Z,15.43
2018-05-12T04:19:20.522Z,16.20
2018-05-12T04:21:49.082Z,15.03
2018-05-12T04:24:16.847Z,15.10
2018-05-12T04:26:44.569Z,14.87
2018-05-12T04:29:12.373Z,16.03
2018-05-12T04:31:40.178Z,15.60
2018-05-12T04:34:07.972Z,15.13
2018-05-12T04:36:35.723Z,15.10
2018-05-12T04:39:03.459Z,15.53
2018-05-12T04:41:31.262Z,14.50
2018-05-12T04:44:00.245Z,15.97
2018-05-12T04:46:27.880Z,17.47
2018-05-12T04:48:55.655Z,15.00
2018-05-12T04:51:23.435Z,15.40
2018-05-12T04:53:51.201Z,15.50
2018-05-12T04:56:18.945Z,16.17
2018-05-12T04:58:46.671Z,16.87
2018-05-12T05:01:14.385Z,19.10
2018-05-12T05:03:42.979Z,18.60
2018-05-12T05:06:10.765Z,21.60
2018-05-12T05:08:38.406Z,19.60
2018-05-12T05:11:06.243Z,19.80
2018-05-12T05:13:33.957Z,21.77
2018-05-12T05:16:01.731Z,21.30
2018-05-12T05:18:29.511Z,21.57
2018-05-12T05:20:58.856Z,21.87
2018-05-12T05:23:26.634Z,21.60
2018-05-12T05:25:55.218Z,20.37
2018-05-12T05:28:22.972Z,22.77
2018-05-12T05:30:50.729Z,22.03
2018-05-12T05:33:18.504Z,22.10
2018-05-12T05:35:46.339Z,22.53
2018-05-12T05:38:14.070Z,22.20
2018-05-12T05:40:42.508Z,24.00
2018-05-12T05:43:10.309Z,24.33
2018-05-12T05:45:37.982Z,21.07
2018-05-12T05:48:06.536Z,25.57
2018-05-12T05:50:34.256Z,26.60
2018-05-12T05:53:02.049Z,21.73
2018-05-12T05:55:30.532Z,21.30
2018-05-12T05:57:58.186Z,24.60
2018-05-12T06:00:25.764Z,26.43
2018-05-12T06:02:53.420Z,23.40
2018-05-12T06:05:21.669Z,25.60
2018-05-12T06:07:49.216Z,23.67
2018-05-12T06:10:16.758Z,23.13
2018-05-12T06:12:45.047Z,25.43
2018-05-12T06:15:12.595Z,24.37
2018-05-12T06:17:40.106Z,23.30
2018-05-12T06:20:07.674Z,24.20
2018-05-12T06:22:35.184Z,23.70
2018-05-12T06:25:03.512Z,23.83
2018-05-12T06:27:31.020Z,24.20
2018-05-12T06:29:59.337Z,23.73
2018-05-12T06:32:26.841Z,24.53
2018-05-12T06:34:54.384Z,24.93
2018-05-12T06:37:22.078Z,25.47
2018-05-12T06:39:49.633Z,23.30
2018-05-12T06:42:17.135Z,23.50
2018-05-12T06:44:44.679Z,22.43
2018-05-12T06:47:12.183Z,23.30
2018-05-12T06:49:39.746Z,23.43
2018-05-12T06:52:07.262Z,22.67
2018-05-12T06:54:34.788Z,23.37
2018-05-12T06:57:02.334Z,21.47
2018-05-12T06:59:30.620Z,21.53
2018-05-12T07:01:58.940Z,22.60
2018-05-12T07:04:26.453Z,22.57
2018-05-12T07:06:54.000Z,19.57
2018-05-12T07:09:21.510Z,20.90
2018-05-12T07:11:49.050Z,22.17
2018-05-12T07:14:16.582Z,24.10
2018-05-12T07:16:44.189Z,20.60
2018-05-12T07:19:11.700Z,22.17
2018-05-12T07:21:40.008Z,27.33
2018-05-12T07:24:07.552Z,21.97
2018-05-12T07:26:35.101Z,20.80
2018-05-12T07:29:03.396Z,21.03
2018-05-12T08:59:51.675Z,11.60
2018-05-12T09:02:19.254Z,11.40
2018-05-12T09:04:47.538Z,16.50
2018-05-12T09:07:16.013Z,14.33
2018-05-12T09:09:43.494Z,11.10
2018-05-12T09:12:11.050Z,21.83
2018-05-12T09:14:38.550Z,13.40
2018-05-12T09:17:06.081Z,10.03
2018-05-12T09:19:33.599Z,8.97
2018-05-12T09:22:01.140Z,8.83
2018-05-12T09:24:28.660Z,9.30
2018-05-12T09:26:56.203Z,9.77
2018-05-12T09:29:23.709Z,8.53
2018-05-12T09:31:52.002Z,7.90
2018-05-12T09:34:19.548Z,9.70
2018-05-12T09:36:47.064Z,9.93
2018-05-12T09:39:14.603Z,9.67
2018-05-12T09:41:42.900Z,8.40
2018-05-12T09:44:10.435Z,11.97
2018-05-12T09:46:37.940Z,8.20
2018-05-12T09:49:05.497Z,7.77
2018-05-12T09:51:33.016Z,8.07
2018-05-12T09:54:00.558Z,8.13
2018-05-12T09:56:28.059Z,7.77
2018-05-12T09:58:55.612Z,10.23
2018-05-12T10:01:23.143Z,11.60
2018-05-12T10:03:50.699Z,7.50
2018-05-12T10:06:18.237Z,8.20
2018-05-12T10:08:46.574Z,9.57
2018-05-12T10:11:14.091Z,9.43
2018-05-12T10:13:41.600Z,12.17
2018-05-12T10:16:09.158Z,7.10
2018-05-12T10:18:36.690Z,5.67
2018-05-12T10:21:04.255Z,5.97
2018-05-12T10:23:31.765Z,7.77
2018-05-12T10:25:59.310Z,5.83
2018-05-12T10:28:26.817Z,7.40
2018-05-12T10:30:55.155Z,5.67
2018-05-12T10:33:22.671Z,5.03
2018-05-12T10:35:50.224Z,7.73
2018-05-12T10:38:18.506Z,5.93
2018-05-12T10:40:46.060Z,5.80
2018-05-12T10:43:13.574Z,6.93
2018-05-12T10:45:41.128Z,6.43
2018-05-12T10:48:08.777Z,5.43
2018-05-12T10:50:36.284Z,5.87
2018-05-12T10:53:03.845Z,4.95
2018-05-12T10:55:31.396Z,5.55
2018-05-12T10:57:58.945Z,8.45
2018-05-12T11:00:26.448Z,5.15
2018-05-12T11:02:54.010Z,5.53
2018-05-12T11:05:21.544Z,4.93
2018-05-12T11:07:49.974Z,5.10
2018-05-12T11:10:17.491Z,7.55
2018-05-12T11:12:45.049Z,7.05
2018-05-12T11:15:12.578Z,4.60
2018-05-12T11:17:40.119Z,5.65
2018-05-12T11:20:07.736Z,6.28
2018-05-12T11:22:35.990Z,4.90
2018-05-12T11:25:03.533Z,5.10
2018-05-12T11:27:31.110Z,5.22
2018-05-12T11:29:59.404Z,4.85
2018-05-12T11:32:27.804Z,5.55
2018-05-12T11:34:55.337Z,5.43
2018-05-12T11:37:22.894Z,8.63
2018-05-12T11:39:51.168Z,5.30
2018-05-12T11:42:18.698Z,5.78
2018-05-12T11:44:46.293Z,7.18
2018-05-12T11:47:13.766Z,5.12
2018-05-12T11:49:41.312Z,4.62
2018-05-12T11:52:09.593Z,10.00
2018-05-12T11:54:37.915Z,4.62
2018-05-12T11:57:05.426Z,5.55
2018-05-12T11:59:32.984Z,4.75
2018-05-12T12:02:01.303Z,7.62
2018-05-12T12:04:28.852Z,5.25
2018-05-12T12:06:56.376Z,4.37
2018-05-12T12:09:23.946Z,3.83
2018-05-12T12:11:51.442Z,4.12
2018-05-12T12:14:18.997Z,4.62
2018-05-12T12:16:46.602Z,4.78
2018-05-12T12:19:14.090Z,5.60
2018-05-12T12:21:41.699Z,4.60
2018-05-12T12:24:09.284Z,6.03
2018-05-12T12:26:36.812Z,6.55
2018-05-12T12:29:04.744Z,4.78
2018-05-12T12:31:32.284Z,5.87
2018-05-12T12:33:59.824Z,7.20
2018-05-12T12:36:27.408Z,5.05
2018-05-12T12:38:55.745Z,5.25
2018-05-12T12:41:23.368Z,7.82
2018-05-12T12:43:50.882Z,4.97
2018-05-12T12:46:18.436Z,5.72
2018-05-12T12:48:45.950Z,11.12
2018-05-12T12:51:13.569Z,5.32
2018-05-12T12:53:41.149Z,4.87
2018-05-12T12:56:08.705Z,4.82
2018-05-12T12:58:36.244Z,6.43
2018-05-12T13:01:03.829Z,7.03
2018-05-12T13:03:31.356Z,4.70
2018-05-12T13:05:58.967Z,4.00
2018-05-12T13:08:26.517Z,7.25
2018-05-12T13:10:54.105Z,5.62
2018-05-12T13:13:21.734Z,6.05
2018-05-12T13:15:49.312Z,6.30
2018-05-12T13:18:16.829Z,9.57
2018-05-12T13:20:44.403Z,4.82
2018-05-12T13:23:11.967Z,5.25
2018-05-12T13:25:39.488Z,7.55
2018-05-12T13:28:07.075Z,5.90
2018-05-12T13:30:34.671Z,6.55
2018-05-12T13:33:02.206Z,6.15
2018-05-12T13:35:29.742Z,6.03
2018-05-12T13:37:57.287Z,8.35
2018-05-12T13:40:24.858Z,5.97
2018-05-12T13:42:52.349Z,5.57
2018-05-12T13:45:19.891Z,8.75
2018-05-12T13:47:47.440Z,9.05
2018-05-12T13:50:14.993Z,8.68
2018-05-12T13:52:42.539Z,6.60
2018-05-12T13:55:10.044Z,7.35
2018-05-12T13:57:38.119Z,7.75
2018-05-12T14:00:05.639Z,6.82
2018-05-12T14:02:33.189Z,8.82
2018-05-12T14:05:00.712Z,7.07
2018-05-12T14:07:28.377Z,7.32
2018-05-12T14:09:55.808Z,10.93
2018-05-12T14:12:23.320Z,6.63
2018-05-12T14:14:50.880Z,8.27
2018-05-12T14:17:18.388Z,7.10
2018-05-12T14:19:46.025Z,8.50
2018-05-12T14:22:13.476Z,7.60
2018-05-12T14:24:41.028Z,7.70
2018-05-12T14:27:08.541Z,8.50
2018-05-12T14:29:36.088Z,10.30
2018-05-12T14:32:03.590Z,14.77
2018-05-12T14:34:31.147Z,8.60
2018-05-12T14:36:58.653Z,7.87
2018-05-12T14:39:26.965Z,7.50
2018-05-12T14:41:54.495Z,7.93
2018-05-12T14:44:22.074Z,12.57
2018-05-12T14:46:49.595Z,12.30
2018-05-12T14:49:17.146Z,9.37
2018-05-12T14:51:44.674Z,11.90
2018-05-12T14:54:12.232Z,8.00
2018-05-12T14:56:39.743Z,9.07
2018-05-12T14:59:08.020Z,7.93
2018-05-12T15:01:36.328Z,11.00
2018-05-12T15:04:03.841Z,8.13
2018-05-12T15:06:31.382Z,11.23
2018-05-12T15:08:58.912Z,10.47
2018-05-12T15:11:26.479Z,8.43
2018-05-12T15:13:53.987Z,7.47
2018-05-12T15:16:21.544Z,8.33
2018-05-12T15:18:49.064Z,8.43
2018-05-12T15:21:16.649Z,7.23
2018-05-12T15:23:44.183Z,6.60
2018-05-12T15:26:11.717Z,6.40
2018-05-12T15:28:39.231Z,6.40
2018-05-12T15:31:06.780Z,5.60
2018-05-12T15:33:34.301Z,4.83
2018-05-12T15:36:01.844Z,7.50
2018-05-12T15:38:29.336Z,6.50
2018-05-12T15:40:57.389Z,6.93
2018-05-12T15:43:24.949Z,6.73
2018-05-12T15:45:52.519Z,6.40
2018-05-12T15:48:20.033Z,8.63
2018-05-12T15:50:48.397Z,11.93
2018-05-12T15:53:15.920Z,9.33
2018-05-12T15:55:43.423Z,8.47
2018-05-12T15:58:11.747Z,16.40
2018-05-12T16:00:39.279Z,8.83
2018-05-12T16:03:06.852Z,10.47
2018-05-12T16:05:34.372Z,9.53
2018-05-12T16:08:01.927Z,10.20
2018-05-12T16:10:29.440Z,11.13
2018-05-12T16:12:56.980Z,13.20
2018-05-12T16:15:24.488Z,10.20
2018-05-12T16:17:52.061Z,10.13
2018-05-12T16:20:19.677Z,11.63
2018-05-12T16:22:47.169Z,10.30
2018-05-12T16:25:14.711Z,10.53
2018-05-12T16:27:42.219Z,9.77
2018-05-12T16:30:09.767Z,11.17
2018-05-12T16:32:37.288Z,11.93
2018-05-12T16:35:04.835Z,9.60
2018-05-12T16:37:32.339Z,16.00
2018-05-12T16:39:59.902Z,13.10
2018-05-12T16:42:27.415Z,9.80
2018-05-12T16:44:54.982Z,12.73
2018-05-12T16:47:22.516Z,11.47
2018-05-12T16:49:50.064Z,10.03
2018-05-12T16:52:17.575Z,10.37
2018-05-12T16:54:45.120Z,9.90
2018-05-12T16:57:12.620Z,9.07
2018-05-12T16:59:40.176Z,9.73
2018-05-12T17:02:08.469Z,9.13
2018-05-12T17:04:36.363Z,13.60
2018-05-12T17:07:03.888Z,10.00
2018-05-12T17:09:31.762Z,11.27
2018-05-12T17:11:59.292Z,9.27
2018-05-12T17:14:27.513Z,10.57
2018-05-12T17:16:55.023Z,11.00
2018-05-12T17:19:22.595Z,11.10
2018-05-12T17:21:50.146Z,12.17
2018-05-12T17:24:17.666Z,10.87
2018-05-12T17:26:45.222Z,14.50
2018-05-12T17:29:12.746Z,10.27
2018-05-12T17:31:41.065Z,9.47
2018-05-12T17:34:08.606Z,9.60
2018-05-12T17:36:36.282Z,9.53
2018-05-12T17:39:05.894Z,8.77
2018-05-12T17:41:33.528Z,9.33
2018-05-12T17:44:01.072Z,8.27
2018-05-12T17:46:29.390Z,6.90
2018-05-12T17:48:56.935Z,9.60
2018-05-12T17:51:24.495Z,8.60
2018-05-12T17:53:52.019Z,8.47
2018-05-12T17:56:20.323Z,8.20
2018-05-12T17:58:47.829Z,9.33
2018-05-12T18:01:15.386Z,8.93
2018-05-12T18:03:42.889Z,9.10
2018-05-12T18:06:11.160Z,9.00
2018-05-12T18:08:39.471Z,8.73
2018-05-12T18:11:07.088Z,9.77
2018-05-12T18:13:35.420Z,8.80
2018-05-12T18:16:02.948Z,11.60
2018-05-12T18:18:30.495Z,9.40
2018-05-12T18:20:58.769Z,9.33
2018-05-12T18:23:26.319Z,9.03
2018-05-12T18:25:53.831Z,11.17
2018-05-12T18:28:21.370Z,8.97
2018-05-12T18:30:48.884Z,10.77
2018-05-12T18:33:16.438Z,11.50
2018-05-12T18:35:43.962Z,11.23
2018-05-12T18:38:11.556Z,15.23
2018-05-12T18:40:39.083Z,12.10
2018-05-12T18:43:06.692Z,16.27
2018-05-12T18:45:34.987Z,15.20
2018-05-12T18:48:02.517Z,12.53
2018-05-12T18:50:30.074Z,12.73
2018-05-12T18:52:57.618Z,14.27
2018-05-12T18:55:25.163Z,14.53
2018-05-12T18:57:52.700Z,13.40
2018-05-12T19:00:20.251Z,11.67
2018-05-12T19:02:47.763Z,12.33
2018-05-12T19:05:15.365Z,11.33
2018-05-12T19:07:43.677Z,15.03
2018-05-12T19:10:11.332Z,13.00
2018-05-12T19:12:38.875Z,12.80
2018-05-12T19:15:06.471Z,12.20
2018-05-12T19:17:34.015Z,14.77
2018-05-12T19:20:01.551Z,12.03
2018-05-12T19:22:29.147Z,15.37
2018-05-12T19:24:56.667Z,11.70
2018-05-12T19:27:24.188Z,11.77
2018-05-12T19:29:51.755Z,17.10
2018-05-12T19:32:19.265Z,13.27
2018-05-12T19:34:46.818Z,11.00
2018-05-12T19:37:14.323Z,13.10
2018-05-12T19:39:41.893Z,12.53
2018-05-12T19:42:09.414Z,13.47
2018-05-12T19:44:36.943Z,14.23
2018-05-12T19:47:04.727Z,14.90
2018-05-12T19:49:32.322Z,13.53
2018-05-12T19:51:59.815Z,14.90
2018-05-12T19:54:28.103Z,14.73
2018-05-12T19:56:55.700Z,14.47
2018-05-12T19:59:23.218Z,14.47
2018-05-12T20:01:51.549Z,15.00
2018-05-12T20:04:19.068Z,14.40
2018-05-12T20:06:46.631Z,13.60
2018-05-12T20:09:14.166Z,13.80
2018-05-12T20:11:41.706Z,13.77
2018-05-12T20:14:09.223Z,13.40
2018-05-12T20:16:36.777Z,15.03
2018-05-12T20:19:04.592Z,15.50
2018-05-12T20:21:32.189Z,14.47
2018-05-12T20:23:59.708Z,15.03
2018-05-12T20:26:27.263Z,15.63
2018-05-12T20:28:54.763Z,14.17
2018-05-12T20:31:22.341Z,15.83
2018-05-12T20:33:50.194Z,16.07
2018-05-12T20:36:18.445Z,14.90
2018-05-12T20:38:46.222Z,15.63
2018-05-12T20:41:14.776Z,15.90
2018-05-12T20:43:43.969Z,16.70
2018-05-12T20:46:12.021Z,14.70
2018-05-12T20:48:40.673Z,16.33
2018-05-12T20:51:08.327Z,15.50
2018-05-12T20:53:35.895Z,15.50
2018-05-12T20:56:03.412Z,15.47
2018-05-12T20:58:30.955Z,14.57
2018-05-12T21:00:58.471Z,15.17
2018-05-12T21:03:26.027Z,13.93
2018-05-12T21:05:53.565Z,12.30
2018-05-12T21:08:21.149Z,11.40
2018-05-12T21:10:48.697Z,12.13
2018-05-12T21:13:17.023Z,12.07
2018-05-12T21:15:44.540Z,12.27
2018-05-12T21:18:12.062Z,12.33
2018-05-12T21:20:39.766Z,13.73
2018-05-12T21:23:07.302Z,11.97
2018-05-12T21:25:36.115Z,14.83
2018-05-12T21:28:03.670Z,13.77
2018-05-12T21:30:31.210Z,14.30
2018-05-12T21:32:58.780Z,14.90
2018-05-12T21:35:26.347Z,14.60
2018-05-12T21:37:54.662Z,14.93
2018-05-12T21:40:22.189Z,14.33
2018-05-12T21:42:49.736Z,14.63
2018-05-12T21:45:18.062Z,14.97
2018-05-12T21:47:45.568Z,15.00
2018-05-12T21:50:13.872Z,15.40
2018-05-12T21:52:41.414Z,14.13
2018-05-12T21:55:08.960Z,17.70
2018-05-12T21:57:36.552Z,14.73
2018-05-12T22:00:04.260Z,15.10
2018-05-12T22:02:31.821Z,14.73
2018-05-12T22:04:59.340Z,14.67
2018-05-12T22:07:26.903Z,15.67
2018-05-12T22:09:54.428Z,15.20
2018-05-12T22:12:22.759Z,16.17
2018-05-12T22:14:50.292Z,15.33
2018-05-12T22:17:17.846Z,16.87
2018-05-12T22:19:45.373Z,15.97
2018-05-12T22:22:13.692Z,15.83
2018-05-12T22:24:41.219Z,15.93
2018-05-12T22:27:08.799Z,16.60
2018-05-12T22:29:36.320Z,15.83
2018-05-12T22:32:03.833Z,17.07
2018-05-12T22:34:32.780Z,17.13
2018-05-12T22:37:01.063Z,16.90
2018-05-12T22:39:28.622Z,15.37
2018-05-12T22:41:56.156Z,17.33
2018-05-12T22:44:23.739Z,16.60
2018-05-12T22:46:52.031Z,17.30
2018-05-12T22:49:19.584Z,16.80
2018-05-12T22:51:47.902Z,16.83
2018-05-12T22:54:15.451Z,17.33
2018-05-12T22:56:42.975Z,16.40
2018-05-12T22:59:12.645Z,18.53
2018-05-12T23:01:40.187Z,15.90
2018-05-12T23:04:07.749Z,18.33
2018-05-12T23:06:35.247Z,16.60
2018-05-12T23:09:02.816Z,16.63
2018-05-12T23:11:31.111Z,18.37
2018-05-12T23:13:58.667Z,16.83
2018-05-12T23:16:26.180Z,17.97
2018-05-12T23:18:53.723Z,16.77
2018-05-12T23:21:21.223Z,16.47
2018-05-12T23:23:48.912Z,18.37
2018-05-12T23:26:16.416Z,17.60
2018-05-12T23:28:43.930Z,17.30
2018-05-12T23:31:11.472Z,16.47
2018-05-12T23:33:38.992Z,18.13
2018-05-12T23:36:06.539Z,17.93
2018-05-12T23:38:34.053Z,20.77
2018-05-12T23:41:01.623Z,20.30
2018-05-12T23:43:29.141Z,18.50
2018-05-12T23:45:56.702Z,19.23
2018-05-12T23:48:24.217Z,18.93
2018-05-12T23:50:51.759Z,18.13
2018-05-12T23:53:19.280Z,19.03
2018-05-12T23:55:46.833Z,19.83
2018-05-12T23:58:14.408Z,18.07
